Time;durP1;ratioP1;P1;durP2;ratioP2;P2;SDS_P1;SDS_P2;PMS_P1;PMS_P2;Temp;Humidity;BMP_temperature;BMP_pressure;BME280_temperature;BME280_humidity;BME280_pressure;Samples;Min_cycle;Max_cycle;Signal;HPM_P1;HPM_P2
2022/12/27 00:01:33;;;;;;;3.43;2.77;;;5.30;99.90;6.70;97108.00;;;;5015191;28;20217;-84
2022/12/27 00:04:22;;;;;;;3.57;2.83;;;5.30;99.90;6.70;97123.00;;;;5013915;28;20210;-85
2022/12/27 00:07:11;;;;;;;3.23;2.70;;;5.30;99.90;6.90;97129.00;;;;5011017;28;20226;-84
2022/12/27 00:09:59;;;;;;;4.07;3.10;;;5.30;99.90;6.40;97123.00;;;;5013446;28;20217;-84
2022/12/27 00:12:50;;;;;;;3.13;2.73;;;5.20;99.90;5.70;97120.00;;;;5002349;28;20206;-84
2022/12/27 00:15:38;;;;;;;4.47;3.87;;;5.00;99.90;6.20;97130.00;;;;5013947;28;20222;-84
2022/12/27 00:18:27;;;;;;;4.30;3.07;;;5.30;99.90;6.30;97147.00;;;;5013216;28;20751;-83
2022/12/27 00:21:18;;;;;;;3.97;2.90;;;5.00;99.90;6.60;97147.00;;;;5013191;28;20210;-83
2022/12/27 00:24:07;;;;;;;4.47;3.53;;;5.10;99.90;6.60;97149.00;;;;5014160;28;20198;-85
2022/12/27 00:26:56;;;;;;;3.33;3.03;;;5.10;99.90;6.60;97132.00;;;;5014775;28;20280;-84
2022/12/27 00:29:46;;;;;;;2.80;2.50;;;5.10;99.90;6.30;97129.00;;;;5008427;28;20233;-85
2022/12/27 00:32:35;;;;;;;4.50;2.23;;;5.10;99.90;5.70;97136.00;;;;5014980;28;20590;-85
2022/12/27 00:35:23;;;;;;;3.77;2.60;;;4.90;99.90;6.20;97157.00;;;;5014336;28;20235;-85
2022/12/27 00:38:12;;;;;;;3.70;2.13;;;4.90;99.90;5.90;97143.00;;;;5015489;28;20198;-84
2022/12/27 00:41:01;;;;;;;2.50;2.30;;;4.90;99.90;6.00;97147.00;;;;5015819;28;20201;-85
2022/12/27 00:43:50;;;;;;;5.30;3.33;;;4.90;99.90;6.00;97154.00;;;;5013701;28;20205;-83
2022/12/27 00:46:40;;;;;;;3.30;2.40;;;4.90;99.90;5.70;97150.00;;;;5007535;28;20322;-83
2022/12/27 00:49:29;;;;;;;3.13;2.07;;;4.80;99.90;6.20;97170.00;;;;5012766;28;20706;-84
2022/12/27 00:52:18;;;;;;;4.60;2.70;;;4.90;99.90;6.40;97157.00;;;;5013820;28;20206;-84
2022/12/27 00:55:07;;;;;;;4.10;2.43;;;4.90;99.90;6.40;97167.00;;;;5009888;28;20209;-83
2022/12/27 00:57:56;;;;;;;3.77;2.60;;;4.90;99.90;6.20;97144.00;;;;5013167;28;20206;-84
2022/12/27 01:00:45;;;;;;;3.20;2.47;;;5.00;99.90;5.80;97155.00;;;;5013970;28;20217;-84
2022/12/27 01:03:35;;;;;;;4.63;2.40;;;4.80;99.90;6.00;97167.00;;;;5006423;28;20212;-84
2022/12/27 01:06:27;;;;;;;4.87;2.73;;;4.80;99.90;5.70;97166.00;;;;5010948;28;20696;-84
2022/12/27 01:09:16;;;;;;;3.40;3.10;;;4.70;99.90;5.90;97164.00;;;;5010640;28;20221;-85
2022/12/27 01:12:05;;;;;;;3.23;2.53;;;4.60;99.90;6.00;97163.00;;;;5007729;28;20269;-85
2022/12/27 01:14:54;;;;;;;3.53;2.53;;;4.60;99.90;5.60;97172.00;;;;5011918;28;20202;-83
2022/12/27 01:17:43;;;;;;;7.30;2.53;;;4.50;99.90;5.80;97188.00;;;;5013046;28;20214;-83
2022/12/27 01:20:33;;;;;;;3.40;2.60;;;4.50;99.90;5.70;97183.00;;;;5004707;28;20217;-84
2022/12/27 01:23:22;;;;;;;4.03;2.43;;;4.40;99.90;5.70;97186.00;;;;5001432;28;20602;-84
2022/12/27 01:26:18;;;;;;;4.13;2.37;;;4.60;99.90;5.50;97181.00;;;;5012821;28;20309;-84
2022/12/27 01:29:06;;;;;;;2.90;2.53;;;4.40;99.90;5.30;97175.00;;;;5013790;28;20205;-84
2022/12/27 01:31:55;;;;;;;6.70;2.27;;;4.30;99.90;5.30;97184.00;;;;5013995;28;20564;-85
2022/12/27 01:34:44;;;;;;;2.30;2.10;;;4.30;99.90;5.40;97185.00;;;;5013929;28;20209;-84
2022/12/27 01:37:34;;;;;;;3.43;2.40;;;5.20;99.90;5.20;97197.00;;;;5006343;28;20226;-84
2022/12/27 01:40:23;;;;;;;2.37;1.80;;;4.20;99.90;4.80;97183.00;;;;5008512;28;20207;-84
2022/12/27 01:43:16;;;;;;;2.90;2.63;;;4.00;99.90;4.90;97196.00;;;;5012979;28;20235;-82
2022/12/27 01:46:05;;;;;;;2.60;2.40;;;4.00;99.90;5.30;97204.00;;;;5010979;28;20229;-84
2022/12/27 01:48:54;;;;;;;4.80;2.13;;;4.00;99.90;5.30;97195.00;;;;5009588;28;20429;-84
2022/12/27 01:51:43;;;;;;;3.90;2.77;;;4.10;99.90;5.10;97211.00;;;;5012185;28;20201;-83
2022/12/27 01:54:33;;;;;;;3.90;2.40;;;4.10;99.90;5.60;97207.00;;;;5012956;28;21031;-83
2022/12/27 01:57:22;;;;;;;2.33;2.13;;;4.20;99.90;5.40;97201.00;;;;5011735;28;20256;-82
2022/12/27 02:00:13;;;;;;;2.20;2.00;;;4.20;99.90;5.20;97209.00;;;;5011547;28;20241;-85
2022/12/27 02:03:02;;;;;;;2.53;1.53;;;4.20;99.90;5.20;97217.00;;;;5012114;28;20691;-84
2022/12/27 02:05:52;;;;;;;2.60;2.40;;;4.20;99.90;5.60;97226.00;;;;5012183;28;20234;-85
2022/12/27 02:08:51;;;;;;;4.00;2.83;;;4.20;99.90;5.60;97223.00;;;;5012346;28;20562;-84
2022/12/27 02:11:51;;;;;;;2.80;2.60;;;4.20;99.90;5.30;97224.00;;;;5009451;28;20261;-83
2022/12/27 02:14:43;;;;;;;2.20;1.90;;;4.30;99.90;5.20;97222.00;;;;5007544;28;20210;-83
2022/12/27 02:17:33;;;;;;;3.27;2.10;;;4.10;99.90;5.30;97216.00;;;;5004372;28;20382;-84
2022/12/27 02:20:24;;;;;;;2.23;1.90;;;4.00;99.90;5.00;97229.00;;;;5012987;28;20405;-84
2022/12/27 02:24:05;;;;;;;2.10;1.90;;;4.00;99.90;5.00;97219.00;;;;5010424;28;20210;-84
2022/12/27 02:27:04;;;;;;;2.43;2.10;;;3.90;99.90;5.10;97230.00;;;;5010108;28;20726;-84
2022/12/27 02:30:00;;;;;;;2.23;1.93;;;3.90;99.90;4.40;97234.00;;;;5010968;28;20209;-83
2022/12/27 02:32:56;;;;;;;2.60;2.00;;;3.80;99.90;4.10;97225.00;;;;5013673;28;20202;-85
2022/12/27 02:35:52;;;;;;;2.03;1.93;;;3.50;99.90;4.50;97241.00;;;;5016353;28;20460;-82
2022/12/27 02:38:45;;;;;;;3.20;2.87;;;3.40;99.90;4.60;97241.00;;;;5013616;28;20205;-83
2022/12/27 02:55:02;;;;;;;2.77;2.17;;;3.20;99.90;4.40;97263.00;;;;5014393;28;20441;-84
2022/12/27 02:58:11;;;;;;;4.80;2.37;;;3.20;99.90;4.10;97270.00;;;;5014310;28;20525;-85
2022/12/27 03:04:36;;;;;;;2.67;2.40;;;3.10;99.90;4.00;97269.00;;;;5013644;28;20464;-83
2022/12/27 03:07:34;;;;;;;2.33;1.70;;;3.00;99.90;4.20;97263.00;;;;5014906;28;20912;-85
2022/12/27 03:16:59;;;;;;;2.70;1.90;;;2.90;99.90;3.90;97273.00;;;;5009255;28;20515;-83
2022/12/27 03:26:10;;;;;;;3.43;1.60;;;3.00;99.90;3.30;97270.00;;;;5014731;28;20491;-84
2022/12/27 03:35:21;;;;;;;2.57;2.20;;;2.50;99.90;3.50;97299.00;;;;5013798;28;20974;-84
2022/12/27 03:38:11;;;;;;;3.60;2.40;;;2.40;99.90;3.60;97301.00;;;;5013344;28;20491;-83
2022/12/27 03:44:23;;;;;;;1.87;1.77;;;2.50;99.90;3.90;97295.00;;;;5010183;28;20499;-84
2022/12/27 03:47:22;;;;;;;2.03;1.83;;;2.50;99.90;3.80;97298.00;;;;5013165;28;20468;-83
2022/12/27 03:50:18;;;;;;;2.37;1.67;;;2.60;99.90;3.80;97297.00;;;;5012621;28;20788;-83
2022/12/27 03:53:15;;;;;;;1.77;1.67;;;2.60;99.90;3.80;97303.00;;;;5012970;28;20430;-82
2022/12/27 03:56:05;;;;;;;1.70;1.60;;;2.50;99.90;3.80;97297.00;;;;5003519;28;20453;-83
2022/12/27 03:58:54;;;;;;;2.70;1.97;;;2.50;99.90;3.80;97287.00;;;;5012518;28;20425;-82
2022/12/27 04:01:43;;;;;;;2.73;1.70;;;2.50;99.90;3.80;97290.00;;;;5012078;28;20433;-83
2022/12/27 04:04:32;;;;;;;2.57;1.70;;;2.50;99.90;3.60;97272.00;;;;5013205;28;20441;-83
2022/12/27 04:07:22;;;;;;;2.53;2.00;;;2.50;99.90;3.50;97291.00;;;;5009851;28;20545;-83
2022/12/27 04:35:04;;;;;;;2.43;2.23;;;3.30;99.90;2.30;97330.00;;;;5006368;28;20480;-82
2022/12/27 04:37:54;;;;;;;1.80;1.50;;;1.90;99.90;2.20;97324.00;;;;5011439;28;20946;-83
2022/12/27 04:56:18;;;;;;;1.47;1.37;;;2.00;99.90;2.70;97335.00;;;;5009385;28;20503;-85
2022/12/27 05:02:13;;;;;;;3.50;2.53;;;2.60;99.90;2.50;97360.00;;;;5007883;28;20429;-81
2022/12/27 05:05:02;;;;;;;3.53;2.10;;;1.90;99.90;2.70;97368.00;;;;5010760;28;20422;-84
2022/12/27 05:14:10;;;;;;;1.50;1.40;;;1.90;99.90;3.00;97382.00;;;;5006976;28;20495;-82
2022/12/27 05:16:59;;;;;;;1.70;1.60;;;3.00;99.90;3.10;97394.00;;;;5012958;28;20449;-82
2022/12/27 05:19:48;;;;;;;2.07;1.50;;;2.00;99.90;3.00;97392.00;;;;5010777;28;20433;-82
2022/12/27 05:25:45;;;;;;;2.33;2.10;;;1.90;99.90;2.80;97397.00;;;;5007723;28;20441;-83
2022/12/27 05:28:35;;;;;;;3.57;1.90;;;2.00;99.90;2.80;97403.00;;;;5002676;28;20472;-83
2022/12/27 05:31:26;;;;;;;1.40;1.30;;;1.70;99.90;2.90;97408.00;;;;5012179;28;20421;-82
2022/12/27 05:34:15;;;;;;;2.80;1.90;;;1.70;99.90;3.10;97419.00;;;;5011260;28;20503;-83
2022/12/27 05:37:03;;;;;;;1.70;1.60;;;1.90;99.90;2.50;97415.00;;;;5011859;28;20444;-84
2022/12/27 05:39:52;;;;;;;1.67;1.43;;;1.70;99.90;1.90;97416.00;;;;5015487;28;20958;-84
2022/12/27 05:42:41;;;;;;;2.07;1.90;;;1.50;99.90;2.20;97414.00;;;;5011141;28;20499;-82
2022/12/27 05:45:31;;;;;;;1.67;1.43;;;1.90;99.90;2.60;97419.00;;;;5003195;28;20460;-83
2022/12/27 05:48:20;;;;;;;2.03;1.83;;;1.60;99.90;2.70;97423.00;;;;5009400;28;21278;-84
2022/12/27 05:51:12;;;;;;;3.57;1.53;;;2.10;99.90;2.70;97433.00;;;;5010455;28;20444;-83
2022/12/27 05:54:00;;;;;;;1.80;1.70;;;1.60;99.90;2.80;97416.00;;;;5011081;28;20436;-85
2022/12/27 05:56:49;;;;;;;2.43;1.97;;;1.70;99.90;2.80;97422.00;;;;5012087;28;20453;-82
2022/12/27 05:59:38;;;;;;;2.53;2.03;;;1.70;99.90;2.90;97434.00;;;;5010564;28;20934;-84
2022/12/27 06:02:28;;;;;;;2.00;1.90;;;2.40;99.90;2.90;97429.00;;;;5013654;28;20468;-82
2022/12/27 06:05:17;;;;;;;2.43;2.03;;;1.80;99.90;2.90;97438.00;;;;5011059;28;20508;-82
2022/12/27 06:08:06;;;;;;;2.40;1.80;;;1.70;99.90;2.20;97433.00;;;;4996598;28;20461;-84
2022/12/27 06:11:03;;;;;;;3.77;2.30;;;2.20;99.90;2.10;97446.00;;;;5013609;28;20879;-83
2022/12/27 06:13:54;;;;;;;3.07;2.03;;;1.60;99.90;1.90;97450.00;;;;5014920;28;20421;-83
2022/12/27 06:16:43;;;;;;;1.70;1.53;;;1.50;99.90;1.90;97457.00;;;;5014272;28;20449;-83
2022/12/27 06:19:33;;;;;;;1.80;1.70;;;1.90;99.90;2.30;97463.00;;;;5014852;28;20809;-83
2022/12/27 06:22:21;;;;;;;1.97;1.57;;;1.30;99.90;2.60;97472.00;;;;5014828;28;20425;-82
2022/12/27 06:25:11;;;;;;;2.30;2.00;;;1.80;99.90;2.60;97462.00;;;;5014352;28;20942;-84
2022/12/27 06:28:01;;;;;;;1.97;1.60;;;1.40;99.90;2.70;97458.00;;;;5014580;28;20464;-82
2022/12/27 06:30:50;;;;;;;2.43;1.70;;;1.40;99.90;2.80;97459.00;;;;5006763;28;20433;-82
2022/12/27 06:33:39;;;;;;;1.80;1.67;;;1.40;99.90;2.60;97452.00;;;;5011683;28;20453;-83
2022/12/27 06:36:29;;;;;;;1.33;1.20;;;1.90;99.90;2.30;97455.00;;;;5013330;28;20981;-84
2022/12/27 06:39:18;;;;;;;5.77;3.50;;;1.50;99.90;2.00;97459.00;;;;5014642;28;20433;-85
2022/12/27 06:42:07;;;;;;;7.03;4.03;;;1.50;99.90;2.30;97477.00;;;;5014475;28;20425;-84
2022/12/27 06:44:56;;;;;;;3.37;3.17;;;1.50;99.90;2.30;97483.00;;;;5010722;28;20445;-82
2022/12/27 06:47:44;;;;;;;3.60;2.13;;;1.30;99.90;2.40;97494.00;;;;5008009;28;20488;-82
2022/12/27 06:50:33;;;;;;;3.17;1.83;;;2.20;99.90;2.50;97501.00;;;;5012608;28;20425;-83
2022/12/27 06:53:24;;;;;;;2.30;2.10;;;1.70;99.90;2.70;97514.00;;;;5008706;28;20426;-82
2022/12/27 06:56:15;;;;;;;2.97;2.43;;;1.70;99.90;2.70;97514.00;;;;5007492;28;20460;-84
2022/12/27 06:59:04;;;;;;;2.63;2.33;;;2.70;99.90;2.70;97509.00;;;;5010115;28;20437;-83
2022/12/27 07:01:53;;;;;;;3.07;1.80;;;1.40;99.90;2.90;97520.00;;;;5011575;28;20445;-83
2022/12/27 07:04:42;;;;;;;3.00;2.17;;;1.50;99.90;2.70;97511.00;;;;5012271;28;20426;-83
2022/12/27 07:07:30;;;;;;;2.13;1.93;;;1.50;99.90;2.80;97520.00;;;;5013288;28;20433;-85
2022/12/27 07:10:21;;;;;;;1.73;1.63;;;1.50;99.90;2.70;97511.00;;;;4999363;28;20472;-87
2022/12/27 07:13:09;;;;;;;2.67;1.77;;;1.60;99.90;3.00;97515.00;;;;5000412;28;20453;-84
2022/12/27 07:15:58;;;;;;;2.23;2.03;;;1.90;99.90;2.50;97515.00;;;;5006331;28;20469;-84
2022/12/27 07:18:47;;;;;;;3.60;2.57;;;1.60;99.90;2.40;97516.00;;;;5008596;28;20433;-84
2022/12/27 07:21:37;;;;;;;3.13;2.80;;;2.80;99.90;2.50;97529.00;;;;5010981;28;20428;-84
2022/12/27 07:24:26;;;;;;;2.40;2.20;;;2.50;99.90;2.40;97519.00;;;;5009661;28;20468;-85
2022/12/27 07:27:16;;;;;;;3.97;2.70;;;2.50;99.90;1.80;97525.00;;;;5005272;28;20497;-82
2022/12/27 07:30:07;;;;;;;6.07;3.50;;;2.00;99.90;2.40;97538.00;;;;5008382;28;20440;-84
2022/12/27 07:32:55;;;;;;;4.57;2.73;;;1.50;99.90;3.10;97550.00;;;;5006719;28;20574;-85
2022/12/27 07:35:45;;;;;;;3.20;2.77;;;1.70;99.90;3.30;97551.00;;;;5014826;28;20448;-85
2022/12/27 07:38:34;;;;;;;8.20;5.67;;;1.80;99.90;3.10;97558.00;;;;5012482;28;20505;-83
2022/12/27 07:41:23;;;;;;;10.93;5.83;;;2.10;99.90;3.50;97565.00;;;;5010275;28;20841;-85
2022/12/27 07:44:13;;;;;;;9.13;6.37;;;2.00;99.90;3.60;97568.00;;;;5008889;28;20823;-84
2022/12/27 07:47:02;;;;;;;8.93;6.23;;;2.10;99.90;3.70;97567.00;;;;5006051;28;20489;-84
2022/12/27 07:49:51;;;;;;;8.80;5.53;;;2.20;99.90;3.80;97554.00;;;;5011908;28;20511;-84
2022/12/27 07:52:39;;;;;;;5.70;5.00;;;2.30;99.90;3.90;97544.00;;;;5006128;28;20445;-84
2022/12/27 07:55:28;;;;;;;10.27;5.53;;;2.40;99.90;3.20;97555.00;;;;5007583;28;20453;-86
2022/12/27 07:58:17;;;;;;;12.47;8.93;;;2.40;99.90;3.30;97567.00;;;;5010485;28;20418;-84
2022/12/27 08:01:09;;;;;;;27.37;13.00;;;2.30;99.90;3.70;97584.00;;;;5008326;28;20507;-84
2022/12/27 08:03:58;;;;;;;24.07;11.53;;;2.30;99.90;3.70;97582.00;;;;4999410;28;20937;-84
2022/12/27 08:06:47;;;;;;;9.10;5.87;;;2.40;99.90;3.80;97596.00;;;;5010427;28;20450;-84
2022/12/27 08:09:39;;;;;;;6.60;5.37;;;2.50;99.90;4.00;97581.00;;;;5011666;28;20611;-84
2022/12/27 08:12:27;;;;;;;8.40;4.83;;;2.60;99.90;3.90;97575.00;;;;4993088;28;20422;-84
2022/12/27 08:15:16;;;;;;;5.77;4.77;;;2.60;99.90;4.10;97572.00;;;;5011863;28;20446;-84
2022/12/27 08:18:07;;;;;;;5.73;4.53;;;2.70;99.90;3.10;97571.00;;;;5011704;28;20436;-87
2022/12/27 08:20:56;;;;;;;6.40;4.00;;;2.70;99.90;3.60;97581.00;;;;5013338;28;21186;-85
2022/12/27 08:23:45;;;;;;;6.27;3.93;;;2.70;99.90;3.60;97574.00;;;;5013508;28;20424;-84
2022/12/27 08:26:34;;;;;;;5.83;3.67;;;4.00;99.90;3.90;97573.00;;;;5003549;28;21106;-83
2022/12/27 08:29:23;;;;;;;5.07;4.27;;;2.90;99.90;3.90;97580.00;;;;5011705;28;20473;-84
2022/12/27 08:32:11;;;;;;;2.93;2.67;;;2.80;99.90;4.40;97588.00;;;;5010146;28;20915;-85
2022/12/27 08:35:02;;;;;;;4.23;3.83;;;3.00;99.90;4.50;97572.00;;;;5004174;28;22051;-84
2022/12/27 08:38:05;;;;;;;4.33;3.50;;;3.10;99.90;4.60;97600.00;;;;5001908;28;21210;-85
2022/12/27 08:40:54;;;;;;;5.17;4.67;;;3.70;99.90;4.70;97605.00;;;;5003884;28;20462;-85
2022/12/27 08:43:43;;;;;;;7.97;3.80;;;3.80;99.90;4.60;97608.00;;;;5011875;28;20421;-84
2022/12/27 08:46:32;;;;;;;4.93;3.40;;;3.50;99.90;5.00;97616.00;;;;5012521;28;20465;-84
2022/12/27 08:49:21;;;;;;;5.77;4.40;;;3.60;99.90;5.00;97628.00;;;;5008358;28;20466;-84
2022/12/27 08:52:11;;;;;;;5.10;4.17;;;3.70;99.90;5.50;97631.00;;;;5008738;28;20429;-84
2022/12/27 08:55:00;;;;;;;5.77;4.80;;;4.70;99.90;5.70;97640.00;;;;5005614;28;20515;-85
2022/12/27 08:57:48;;;;;;;3.10;2.90;;;3.90;99.90;5.40;97643.00;;;;5005738;28;20608;-84
2022/12/27 09:00:37;;;;;;;9.43;6.37;;;4.00;99.90;5.80;97651.00;;;;5008385;28;20210;-85
2022/12/27 09:03:26;;;;;;;13.13;6.70;;;4.20;99.90;5.80;97651.00;;;;5010553;28;20194;-85
2022/12/27 09:06:18;;;;;;;14.10;7.67;;;4.30;99.90;6.40;97642.00;;;;5008549;28;20230;-83
2022/12/27 09:09:08;;;;;;;8.67;4.73;;;4.60;99.90;6.80;97651.00;;;;5006598;28;20229;-85
2022/12/27 09:11:57;;;;;;;3.47;2.57;;;5.00;99.90;6.80;97634.00;;;;5005620;28;20825;-85
2022/12/27 09:14:46;;;;;;;3.33;1.83;;;5.00;99.90;7.00;97634.00;;;;5008984;28;20229;-84
2022/12/27 09:17:35;;;;;;;1.67;1.20;;;5.20;99.90;8.10;97652.00;;;;5008238;28;20198;-84
2022/12/27 09:20:23;;;;;;;1.60;1.10;;;5.60;99.90;8.60;97665.00;;;;5005133;28;20209;-83
2022/12/27 09:23:12;;;;;;;6.33;0.40;;;6.10;99.90;9.10;97647.00;;;;4986310;28;20209;-82
2022/12/27 09:26:08;;;;;;;3.20;1.20;;;6.60;99.90;9.70;97642.00;;;;4903995;28;20514;-82
2022/12/27 09:28:59;;;;;;;0.40;0.37;;;7.10;99.90;10.10;97640.00;;;;4882931;28;20554;-81
2022/12/27 09:31:51;;;;;;;0.30;0.30;;;7.60;99.90;10.50;97656.00;;;;4881838;28;20554;-82
2022/12/27 09:34:40;;;;;;;1.43;1.23;;;8.10;99.90;10.30;97632.00;;;;4892304;28;20675;-82
2022/12/27 09:37:31;;;;;;;0.60;0.47;;;8.50;99.90;10.50;97639.00;;;;4938187;28;20233;-82
2022/12/27 09:40:21;;;;;;;0.70;0.60;;;9.50;99.90;10.10;97645.00;;;;4941833;28;20897;-82
2022/12/27 09:43:20;;;;;;;0.73;0.50;;;9.20;99.90;10.40;97645.00;;;;4917971;28;20651;-81
2022/12/27 09:46:19;;;;;;;0.70;0.70;;;8.70;99.90;10.30;97641.00;;;;4887406;28;21081;-84
2022/12/27 09:49:27;;;;;;;0.30;0.30;;;8.80;99.90;10.90;97631.00;;;;4892206;28;20548;-81
2022/12/27 09:52:21;;;;;;;0.70;0.30;;;8.90;99.90;11.30;97631.00;;;;4885944;28;20984;-82
2022/12/27 09:55:20;;;;;;;0.30;0.30;;;9.20;99.90;11.20;97634.00;;;;4889726;28;20665;-82
2022/12/27 09:58:39;;;;;;;0.20;0.20;;;9.40;99.90;11.60;97620.00;;;;4898486;28;20563;-82
2022/12/27 10:01:34;;;;;;;0.30;0.30;;;9.60;99.90;11.70;97613.00;;;;5007882;28;20205;-85
2022/12/27 10:04:23;;;;;;;0.30;0.30;;;9.80;99.90;11.90;97623.00;;;;5001649;28;20331;-84
2022/12/27 10:07:21;;;;;;;2.03;0.33;;;9.90;99.90;12.10;97626.00;;;;5008426;28;20214;-84
2022/12/27 10:10:22;;;;;;;0.40;0.40;;;10.10;99.90;12.30;97612.00;;;;5007267;28;20594;-85
2022/12/27 10:13:37;;;;;;;0.37;0.37;;;10.30;99.90;12.10;97606.00;;;;5008780;28;20590;-83
2022/12/27 10:16:36;;;;;;;0.30;0.30;;;10.30;97.30;12.30;97619.00;;;;5003716;28;20288;-82
2022/12/27 10:19:38;;;;;;;1.63;0.83;;;10.50;95.00;12.60;97620.00;;;;5001618;28;20547;-84
2022/12/27 10:22:35;;;;;;;0.40;0.30;;;10.60;93.40;12.60;97606.00;;;;5008628;28;20213;-83
2022/12/27 10:25:26;;;;;;;0.30;0.30;;;10.80;91.90;12.20;97613.00;;;;5008388;28;20287;-83
2022/12/27 10:28:21;;;;;;;0.30;0.30;;;11.40;89.90;13.10;97626.00;;;;4997994;28;20206;-84
2022/12/27 10:31:18;;;;;;;0.20;0.20;;;12.10;81.70;11.50;97617.00;;;;5005044;28;20249;-83
2022/12/27 10:34:06;;;;;;;1.30;0.30;;;12.10;72.20;12.30;97604.00;;;;5006372;28;20239;-83
2022/12/27 10:36:58;;;;;;;0.30;0.30;;;12.10;73.20;14.10;97622.00;;;;5010416;28;20236;-83
2022/12/27 10:39:46;;;;;;;0.60;0.40;;;12.80;73.60;14.40;97627.00;;;;5007608;28;20695;-84
2022/12/27 10:42:40;;;;;;;0.20;0.20;;;13.70;66.60;14.30;97616.00;;;;5009123;28;20202;-85
2022/12/27 10:45:33;;;;;;;0.40;0.40;;;14.20;64.20;13.60;97608.00;;;;5000406;28;20238;-85
2022/12/27 10:48:26;;;;;;;0.40;0.40;;;14.40;60.60;13.90;97609.00;;;;5006322;28;20611;-84
2022/12/27 10:51:19;;;;;;;0.40;0.40;;;14.50;60.00;14.10;97611.00;;;;5005271;28;20319;-86
2022/12/27 10:54:13;;;;;;;0.30;0.30;;;14.70;59.30;14.50;97606.00;;;;5012540;28;20205;-84
2022/12/27 10:57:24;;;;;;;0.30;0.30;;;14.50;58.70;15.40;97599.00;;;;5015308;28;20288;-83
2022/12/27 11:00:19;;;;;;;8.30;1.83;;;15.00;57.10;16.20;97591.00;;;;5014591;28;20244;-85
2022/12/27 11:03:19;;;;;;;8.70;3.47;;;15.60;57.70;16.80;97580.00;;;;5015270;28;20264;-85
2022/12/27 11:06:22;;;;;;;6.60;1.90;;;16.10;58.20;17.10;97589.00;;;;5016706;28;20678;-86
2022/12/27 11:09:28;;;;;;;1.90;0.90;;;16.60;58.50;16.10;97579.00;;;;5013655;28;20258;-84
2022/12/27 11:12:20;;;;;;;0.50;0.40;;;16.90;55.50;15.20;97578.00;;;;5001274;28;20190;-83
2022/12/27 11:15:18;;;;;;;1.97;0.57;;;16.60;55.20;15.60;97572.00;;;;5013088;28;20198;-85
2022/12/27 11:18:12;;;;;;;1.30;0.70;;;16.10;55.50;17.00;97586.00;;;;5011693;28;20679;-84
2022/12/27 11:21:02;;;;;;;0.97;0.70;;;16.40;56.00;17.80;97583.00;;;;5012676;28;20221;-85
2022/12/27 11:23:56;;;;;;;0.70;0.70;;;17.00;55.90;16.60;97583.00;;;;5007108;28;20199;-84
2022/12/27 11:26:52;;;;;;;0.60;0.30;;;16.30;52.00;15.20;97588.00;;;;5004285;28;20250;-89
2022/12/27 11:29:46;;;;;;;0.50;0.40;;;17.00;51.30;15.60;97592.00;;;;5002550;28;20198;-86
2022/12/27 11:32:34;;;;;;;0.63;0.50;;;16.50;52.70;16.60;97612.00;;;;5015411;28;20201;-86
2022/12/27 11:35:23;;;;;;;2.00;0.43;;;16.50;53.50;16.60;97606.00;;;;5008838;28;20222;-83
2022/12/27 11:38:23;;;;;;;1.60;0.83;;;16.70;52.60;15.40;97610.00;;;;5012254;28;20221;-84
2022/12/27 11:41:28;;;;;;;5.93;0.70;;;16.30;52.10;15.90;97601.00;;;;5011237;28;20211;-85
2022/12/27 11:44:22;;;;;;;0.40;0.30;;;15.80;53.00;16.30;97603.00;;;;5006818;28;20396;-85
2022/12/27 11:47:23;;;;;;;0.30;0.20;;;15.80;53.20;16.90;97595.00;;;;5009431;28;20363;-85
2022/12/27 11:50:43;;;;;;;0.20;0.20;;;16.00;52.50;16.50;97572.00;;;;5019812;28;20280;-83
2022/12/27 11:54:05;;;;;;;0.40;0.20;;;15.90;52.50;17.60;97574.00;;;;5017947;28;20321;-85
2022/12/27 11:57:09;;;;;;;0.60;0.20;;;16.10;52.90;16.70;97570.00;;;;5013473;28;20234;-85
2022/12/27 12:00:13;;;;;;;0.70;0.30;;;16.20;52.60;15.80;97583.00;;;;5012037;28;20623;-85
2022/12/27 12:03:46;;;;;;;1.57;0.20;;;15.90;51.90;16.40;97613.00;;;;5005008;28;20202;-86
2022/12/27 12:06:50;;;;;;;1.13;0.30;;;15.70;53.50;16.10;97596.00;;;;5011436;28;20221;-86
2022/12/27 12:10:01;;;;;;;0.20;0.20;;;15.30;53.80;15.80;97587.00;;;;5009748;28;20209;-86
2022/12/27 12:13:10;;;;;;;0.70;0.40;;;15.20;52.10;13.30;97560.00;;;;5003404;28;20206;-81
2022/12/27 12:16:31;;;;;;;2.20;0.97;;;14.00;51.30;15.10;97571.00;;;;5004606;28;20224;-83
2022/12/27 12:19:41;;;;;;;3.50;0.63;;;13.80;54.10;15.90;97565.00;;;;5018452;28;20209;-86
2022/12/27 12:22:45;;;;;;;1.13;0.30;;;14.10;54.10;14.50;97559.00;;;;5007795;28;20217;-84
2022/12/27 12:26:11;;;;;;;0.30;0.30;;;14.10;51.30;15.50;97588.00;;;;5010063;28;20221;-87
2022/12/27 12:29:26;;;;;;;0.60;0.47;;;14.20;51.10;15.60;97560.00;;;;5003350;28;20202;-85
2022/12/27 12:32:32;;;;;;;0.33;0.33;;;14.30;52.00;15.10;97558.00;;;;5008408;28;20217;-87
2022/12/27 12:36:10;;;;;;;0.30;0.30;;;14.30;52.40;15.60;97574.00;;;;5009364;28;20228;-85
2022/12/27 12:39:11;;;;;;;0.20;0.20;;;14.50;51.80;14.60;97606.00;;;;5003708;28;20201;-85
2022/12/27 12:42:26;;;;;;;0.40;0.30;;;14.20;52.10;14.80;97591.00;;;;5006806;28;20213;-85
2022/12/27 12:45:47;;;;;;;0.20;0.20;;;13.80;52.20;14.30;97591.00;;;;5012172;28;20225;-86
2022/12/27 12:49:10;;;;;;;0.20;0.20;;;13.50;50.90;13.50;97598.00;;;;5009267;28;20676;-84
2022/12/27 12:52:20;;;;;;;0.30;0.30;;;13.10;51.60;13.70;97582.00;;;;5004706;28;20574;-86
2022/12/27 12:55:39;;;;;;;0.40;0.30;;;12.80;52.20;13.40;97584.00;;;;5009775;28;20229;-85
2022/12/27 12:58:45;;;;;;;0.20;0.20;;;12.60;52.40;13.40;97598.00;;;;5009562;28;20252;-82
2022/12/27 13:01:51;;;;;;;0.23;0.23;;;12.40;52.60;13.50;97610.00;;;;5007415;28;20212;-85
2022/12/27 13:05:06;;;;;;;0.30;0.30;;;12.30;53.10;13.40;97614.00;;;;5012880;28;20737;-85
2022/12/27 13:08:07;;;;;;;0.47;0.43;;;12.20;54.20;13.60;97628.00;;;;5005543;28;20663;-85
2022/12/27 13:11:21;;;;;;;0.23;0.23;;;12.10;53.60;13.60;97631.00;;;;5011657;28;20752;-84
2022/12/27 13:14:27;;;;;;;0.63;0.63;;;12.10;54.70;13.60;97627.00;;;;5013030;28;20213;-84
2022/12/27 13:17:25;;;;;;;0.30;0.30;;;12.10;55.30;13.50;97618.00;;;;5014026;28;20233;-84
2022/12/27 13:21:04;;;;;;;0.40;0.30;;;11.90;56.00;13.50;97622.00;;;;5012188;28;20202;-83
2022/12/27 13:24:06;;;;;;;2.00;0.53;;;11.90;55.90;13.40;97616.00;;;;5012206;28;20194;-85
2022/12/27 13:27:05;;;;;;;3.33;1.23;;;11.80;56.70;13.10;97621.00;;;;5014565;28;20217;-84
2022/12/27 13:30:09;;;;;;;0.23;0.23;;;11.70;55.20;12.70;97616.00;;;;5012966;28;20198;-84
2022/12/27 13:33:22;;;;;;;2.27;1.57;;;11.60;54.50;12.80;97616.00;;;;5007540;28;20216;-83
2022/12/27 13:36:22;;;;;;;0.63;0.57;;;11.50;54.00;13.00;97635.00;;;;5009199;28;20214;-83
2022/12/27 13:39:36;;;;;;;0.50;0.30;;;11.50;54.90;12.90;97621.00;;;;5009399;28;20198;-87
2022/12/27 13:43:14;;;;;;;0.23;0.23;;;11.40;54.80;13.10;97636.00;;;;5008889;28;20699;-86
2022/12/27 13:46:35;;;;;;;0.60;0.30;;;11.40;55.40;12.20;97624.00;;;;4999197;28;20868;-87
2022/12/27 13:50:04;;;;;;;0.57;0.40;;;11.30;54.70;12.10;97632.00;;;;5006190;28;20202;-84
2022/12/27 13:53:15;;;;;;;0.37;0.30;;;12.80;55.10;12.70;97639.00;;;;5006155;28;20233;-84
2022/12/27 13:56:15;;;;;;;0.60;0.40;;;11.20;55.40;12.90;97643.00;;;;5005886;28;20610;-85
2022/12/27 13:59:51;;;;;;;0.37;0.37;;;11.30;57.30;12.80;97634.00;;;;5010270;28;20198;-84
2022/12/27 14:03:10;;;;;;;0.80;0.80;;;11.20;57.60;12.70;97651.00;;;;5010738;28;20268;-85
2022/12/27 14:06:35;;;;;;;3.60;0.40;;;11.20;58.30;12.40;97663.00;;;;5014159;28;20725;-84
2022/12/27 14:09:51;;;;;;;0.40;0.40;;;11.00;61.20;12.20;97673.00;;;;5005298;28;20214;-85
2022/12/27 14:13:01;;;;;;;0.47;0.47;;;10.90;58.30;12.20;97666.00;;;;5015296;28;20272;-84
2022/12/27 14:16:20;;;;;;;0.30;0.30;;;10.80;59.50;12.30;97678.00;;;;5010076;28;20264;-83
2022/12/27 14:19:42;;;;;;;1.23;1.13;;;10.70;58.00;11.90;97687.00;;;;5010516;28;20198;-83
2022/12/27 14:23:13;;;;;;;0.43;0.40;;;10.60;58.10;12.20;97689.00;;;;5003511;28;20605;-84
2022/12/27 14:26:57;;;;;;;3.60;0.83;;;10.60;59.00;12.10;97697.00;;;;5005372;28;20233;-83
2022/12/27 14:30:40;;;;;;;0.70;0.50;;;10.60;58.90;12.00;97715.00;;;;5003221;28;20691;-83
2022/12/27 14:34:09;;;;;;;4.87;0.60;;;10.50;58.70;11.90;97717.00;;;;4995780;28;20210;-82
2022/12/27 14:37:26;;;;;;;1.00;0.53;;;10.30;59.60;11.60;97722.00;;;;5021493;28;20217;-82
2022/12/27 14:41:16;;;;;;;2.73;0.50;;;10.20;59.50;11.60;97729.00;;;;5031416;28;20206;-83
2022/12/27 14:44:35;;;;;;;2.63;0.47;;;10.10;59.40;11.30;97725.00;;;;4948275;28;20189;-83
2022/12/27 14:48:24;;;;;;;0.97;0.50;;;9.90;61.10;11.30;97739.00;;;;5006347;28;20217;-83
2022/12/27 14:51:54;;;;;;;0.80;0.77;;;9.90;61.30;11.10;97741.00;;;;5011783;28;20590;-84